JBU1332 KVRB-KJFK
Flight info
| Callsign | JBU1332 |
|---|---|
| Flight time | 2h 19m |
| Altitude | 37000 |
| Route | BLDOG MATLK Q87 JROSS JOHAR Q109 DFENC SAWED Q108 SIE CAMRN5 |
| Aircraft | A320/M-SDE3FGHIRWY/LB1 |
Departure
| Time | 2026-05-06 16:11 |
|---|---|
| Airport | Vero Beach Regional Airport (KVRB) |
Arrival
| Time | 2026-05-06 18:31 |
|---|---|
| Airport | John F. Kennedy International Airport (KJFK) |
| Time | Latitude | Longitude | Altitude | Speed | Heading |
|---|---|---|---|---|---|
| 2026-05-06 15:57 | 27.65228 | -80.41844 | 30 ft | 0 kts | 200° |
| 2026-05-06 15:58 | 27.65242 | -80.41837 | 22 ft | 4 kts | 206° |
| 2026-05-06 15:58 | 27.65265 | -80.41822 | 30 ft | 4 kts | 221° |
| 2026-05-06 15:58 | 27.65282 | -80.41800 | 30 ft | 4 kts | 249° |
| 2026-05-06 15:59 | 27.65286 | -80.41780 | 30 ft | 0 kts | 275° |
| 2026-05-06 16:04 | 27.65286 | -80.41781 | 30 ft | 1 kts | 275° |
| 2026-05-06 16:05 | 27.65289 | -80.41797 | 30 ft | 3 kts | 281° |
| 2026-05-06 16:05 | 27.65301 | -80.41830 | 30 ft | 6 kts | 296° |
| 2026-05-06 16:05 | 27.65318 | -80.41880 | 30 ft | 8 kts | 291° |
| 2026-05-06 16:05 | 27.65340 | -80.41946 | 30 ft | 10 kts | 290° |
| 2026-05-06 16:06 | 27.65365 | -80.42020 | 30 ft | 11 kts | 291° |
| 2026-05-06 16:06 | 27.65395 | -80.42108 | 30 ft | 13 kts | 291° |
| 2026-05-06 16:06 | 27.65420 | -80.42182 | 30 ft | 10 kts | 290° |
| 2026-05-06 16:06 | 27.65445 | -80.42266 | 30 ft | 12 kts | 284° |
| 2026-05-06 16:07 | 27.65477 | -80.42334 | 30 ft | 10 kts | 310° |
| 2026-05-06 16:07 | 27.65518 | -80.42409 | 30 ft | 12 kts | 292° |
| 2026-05-06 16:07 | 27.65551 | -80.42508 | 30 ft | 15 kts | 291° |
| 2026-05-06 16:07 | 27.65589 | -80.42623 | 30 ft | 16 kts | 290° |
| 2026-05-06 16:08 | 27.65620 | -80.42714 | 30 ft | 13 kts | 291° |
| 2026-05-06 16:08 | 27.65652 | -80.42810 | 30 ft | 9 kts | 290° |
| 2026-05-06 16:08 | 27.65674 | -80.42872 | 30 ft | 8 kts | 296° |
| 2026-05-06 16:08 | 27.65694 | -80.42885 | 30 ft | 0 kts | 352° |
| 2026-05-06 16:09 | 27.65696 | -80.42885 | 30 ft | 1 kts | 352° |
| 2026-05-06 16:09 | 27.65704 | -80.42884 | 30 ft | 2 kts | 6° |
| 2026-05-06 16:10 | 27.65725 | -80.42878 | 30 ft | 7 kts | 16° |
| 2026-05-06 16:10 | 27.65773 | -80.42855 | 31 ft | 6 kts | 38° |
| 2026-05-06 16:10 | 27.65767 | -80.42802 | 30 ft | 8 kts | 112° |
| 2026-05-06 16:10 | 27.65735 | -80.42707 | 29 ft | 26 kts | 109° |
| 2026-05-06 16:11 | 27.65583 | -80.42254 | 29 ft | 94 kts | 110° |
| 2026-05-06 16:11 | 27.65290 | -80.41365 | 46 ft | 142 kts | 109° |
| 2026-05-06 16:11 | 27.64936 | -80.40321 | 598 ft | 143 kts | 111° |
| 2026-05-06 16:11 | 27.64584 | -80.39265 | 1180 ft | 146 kts | 108° |
| 2026-05-06 16:12 | 27.64229 | -80.38171 | 1683 ft | 154 kts | 116° |
| 2026-05-06 16:12 | 27.63454 | -80.37276 | 2071 ft | 172 kts | 152° |
| 2026-05-06 16:12 | 27.62183 | -80.36941 | 2134 ft | 207 kts | 176° |
| 2026-05-06 16:12 | 27.60675 | -80.37177 | 2043 ft | 238 kts | 200° |
| 2026-05-06 16:13 | 27.59344 | -80.38437 | 2417 ft | 270 kts | 240° |
| 2026-05-06 16:13 | 27.58908 | -80.40472 | 3409 ft | 272 kts | 274° |
| 2026-05-06 16:13 | 27.59178 | -80.42577 | 4437 ft | 271 kts | 282° |
| 2026-05-06 16:13 | 27.59616 | -80.44660 | 5394 ft | 274 kts | 285° |
| 2026-05-06 16:14 | 27.60115 | -80.46745 | 6260 ft | 278 kts | 288° |
| 2026-05-06 16:14 | 27.60634 | -80.48865 | 7064 ft | 282 kts | 288° |
| 2026-05-06 16:14 | 27.61148 | -80.51018 | 7883 ft | 285 kts | 287° |
| 2026-05-06 16:14 | 27.61644 | -80.53170 | 8705 ft | 287 kts | 287° |
| 2026-05-06 16:15 | 27.62134 | -80.55365 | 9506 ft | 289 kts | 286° |
| 2026-05-06 16:15 | 27.62620 | -80.57590 | 10257 ft | 295 kts | 286° |
| 2026-05-06 16:15 | 27.63129 | -80.59921 | 10468 ft | 317 kts | 286° |
| 2026-05-06 16:15 | 27.63677 | -80.62433 | 10598 ft | 340 kts | 288° |
| 2026-05-06 16:16 | 27.64514 | -80.64946 | 10861 ft | 351 kts | 298° |
| 2026-05-06 16:16 | 27.65794 | -80.67316 | 11411 ft | 354 kts | 307° |
| 2026-05-06 16:16 | 27.67194 | -80.69616 | 12033 ft | 357 kts | 307° |
| 2026-05-06 16:16 | 27.68609 | -80.71939 | 12659 ft | 360 kts | 307° |
| 2026-05-06 16:17 | 27.70037 | -80.74285 | 13292 ft | 362 kts | 307° |
| 2026-05-06 16:17 | 27.71470 | -80.76641 | 13909 ft | 365 kts | 307° |
| 2026-05-06 16:17 | 27.72892 | -80.78979 | 14455 ft | 367 kts | 307° |
| 2026-05-06 16:17 | 27.74346 | -80.81370 | 15030 ft | 368 kts | 307° |
| 2026-05-06 16:18 | 27.75803 | -80.83767 | 15605 ft | 370 kts | 307° |
| 2026-05-06 16:18 | 27.77264 | -80.86172 | 16206 ft | 371 kts | 307° |
| 2026-05-06 16:18 | 27.78722 | -80.88575 | 16820 ft | 372 kts | 307° |
| 2026-05-06 16:18 | 27.80206 | -80.90984 | 17399 ft | 373 kts | 309° |
| 2026-05-06 16:19 | 27.81994 | -80.93111 | 17960 ft | 374 kts | 321° |
| 2026-05-06 16:19 | 27.84139 | -80.94738 | 18504 ft | 377 kts | 332° |
| 2026-05-06 16:19 | 27.86587 | -80.95822 | 18996 ft | 381 kts | 343° |
| 2026-05-06 16:19 | 27.89210 | -80.96390 | 19510 ft | 384 kts | 348° |
| 2026-05-06 16:20 | 27.91863 | -80.96898 | 20009 ft | 387 kts | 348° |
| 2026-05-06 16:20 | 27.94532 | -80.97412 | 20509 ft | 389 kts | 348° |
| 2026-05-06 16:20 | 27.97215 | -80.97933 | 20993 ft | 391 kts | 348° |
| 2026-05-06 16:20 | 27.99879 | -80.98450 | 21462 ft | 394 kts | 348° |
| 2026-05-06 16:21 | 28.02595 | -80.98977 | 21932 ft | 396 kts | 347° |
| 2026-05-06 16:21 | 28.05329 | -80.99508 | 22379 ft | 399 kts | 347° |
| 2026-05-06 16:21 | 28.08082 | -81.00041 | 22826 ft | 401 kts | 347° |
| 2026-05-06 16:21 | 28.10847 | -81.00578 | 23263 ft | 403 kts | 347° |
| 2026-05-06 16:22 | 28.13619 | -81.01120 | 23671 ft | 406 kts | 347° |
| 2026-05-06 16:22 | 28.16376 | -81.01658 | 24011 ft | 408 kts | 347° |
| 2026-05-06 16:22 | 28.19185 | -81.02204 | 24352 ft | 409 kts | 347° |
| 2026-05-06 16:22 | 28.21998 | -81.02751 | 24705 ft | 411 kts | 347° |
| 2026-05-06 16:23 | 28.24829 | -81.03304 | 25047 ft | 413 kts | 346° |
| 2026-05-06 16:23 | 28.27680 | -81.03864 | 25373 ft | 414 kts | 346° |
| 2026-05-06 16:23 | 28.30533 | -81.04426 | 25707 ft | 416 kts | 346° |
| 2026-05-06 16:23 | 28.33358 | -81.04979 | 26032 ft | 418 kts | 346° |
| 2026-05-06 16:24 | 28.36231 | -81.05601 | 26361 ft | 417 kts | 341° |
| 2026-05-06 16:24 | 28.38973 | -81.06645 | 26717 ft | 416 kts | 335° |
| 2026-05-06 16:24 | 28.41687 | -81.07816 | 27056 ft | 417 kts | 335° |
| 2026-05-06 16:24 | 28.44405 | -81.08994 | 27395 ft | 418 kts | 335° |
| 2026-05-06 16:25 | 28.47137 | -81.10177 | 27728 ft | 420 kts | 335° |
| 2026-05-06 16:25 | 28.49843 | -81.11348 | 28054 ft | 421 kts | 335° |
| 2026-05-06 16:25 | 28.52593 | -81.12539 | 28370 ft | 423 kts | 335° |
| 2026-05-06 16:25 | 28.55357 | -81.13735 | 28690 ft | 425 kts | 335° |
| 2026-05-06 16:26 | 28.57198 | -81.14529 | 28894 ft | 425 kts | 335° |
| 2026-05-06 16:26 | 28.60866 | -81.16114 | 29497 ft | 423 kts | 335° |
| 2026-05-06 16:26 | 28.63622 | -81.17304 | 29981 ft | 421 kts | 335° |
| 2026-05-06 16:26 | 28.66357 | -81.18483 | 30425 ft | 419 kts | 335° |
| 2026-05-06 16:27 | 28.69086 | -81.19659 | 30881 ft | 416 kts | 334° |
| 2026-05-06 16:27 | 28.71750 | -81.20811 | 31334 ft | 413 kts | 334° |
| 2026-05-06 16:27 | 28.74437 | -81.21977 | 31771 ft | 412 kts | 334° |
| 2026-05-06 16:27 | 28.77114 | -81.23143 | 32215 ft | 410 kts | 334° |
| 2026-05-06 16:28 | 28.79786 | -81.24307 | 32638 ft | 409 kts | 334° |
| 2026-05-06 16:28 | 28.82443 | -81.25464 | 33050 ft | 407 kts | 334° |
| 2026-05-06 16:28 | 28.85089 | -81.26616 | 33470 ft | 406 kts | 334° |
| 2026-05-06 16:28 | 28.87698 | -81.27752 | 33896 ft | 405 kts | 334° |
| 2026-05-06 16:29 | 28.90351 | -81.28874 | 34260 ft | 407 kts | 338° |
| 2026-05-06 16:29 | 28.93152 | -81.29569 | 34566 ft | 416 kts | 347° |
| 2026-05-06 16:29 | 28.96058 | -81.29818 | 34895 ft | 418 kts | 349° |
| 2026-05-06 16:29 | 28.98925 | -81.30033 | 35277 ft | 416 kts | 349° |
| 2026-05-06 16:30 | 29.01811 | -81.30251 | 35655 ft | 414 kts | 349° |
| 2026-05-06 16:30 | 29.03724 | -81.30399 | 35880 ft | 414 kts | 348° |
| 2026-05-06 16:30 | 29.07538 | -81.30701 | 36304 ft | 413 kts | 348° |
| 2026-05-06 16:30 | 29.10410 | -81.30934 | 36592 ft | 412 kts | 348° |
| 2026-05-06 16:31 | 29.13273 | -81.31169 | 36881 ft | 412 kts | 348° |
| 2026-05-06 16:31 | 29.16137 | -81.31402 | 37092 ft | 412 kts | 348° |
| 2026-05-06 16:31 | 29.21870 | -81.31858 | 37139 ft | 415 kts | 348° |
| 2026-05-06 16:32 | 29.27642 | -81.32316 | 37134 ft | 415 kts | 348° |
| 2026-05-06 16:32 | 29.33416 | -81.32701 | 37132 ft | 416 kts | 349° |
| 2026-05-06 16:33 | 29.39176 | -81.33006 | 37136 ft | 416 kts | 349° |
| 2026-05-06 16:34 | 29.47855 | -81.33488 | 37141 ft | 416 kts | 349° |
| 2026-05-06 16:34 | 29.53646 | -81.33833 | 37124 ft | 416 kts | 349° |
| 2026-05-06 16:35 | 29.59404 | -81.34180 | 37152 ft | 416 kts | 348° |
| 2026-05-06 16:35 | 29.65185 | -81.34523 | 37150 ft | 415 kts | 348° |
| 2026-05-06 16:36 | 29.70968 | -81.34870 | 37149 ft | 415 kts | 348° |
| 2026-05-06 16:36 | 29.76716 | -81.35211 | 37153 ft | 415 kts | 348° |
| 2026-05-06 16:37 | 29.82515 | -81.35550 | 37153 ft | 415 kts | 348° |
| 2026-05-06 16:37 | 29.88253 | -81.35884 | 37173 ft | 414 kts | 348° |
| 2026-05-06 16:38 | 29.94015 | -81.36226 | 37165 ft | 414 kts | 348° |
| 2026-05-06 16:38 | 29.99743 | -81.36578 | 37160 ft | 413 kts | 348° |
| 2026-05-06 16:39 | 30.05508 | -81.36927 | 37156 ft | 413 kts | 348° |
| 2026-05-06 16:39 | 30.11260 | -81.37265 | 37146 ft | 413 kts | 348° |
| 2026-05-06 16:40 | 30.16965 | -81.37607 | 37142 ft | 410 kts | 347° |
| 2026-05-06 16:40 | 30.22682 | -81.37956 | 37131 ft | 410 kts | 347° |
| 2026-05-06 16:41 | 30.28362 | -81.38296 | 37139 ft | 411 kts | 347° |
| 2026-05-06 16:41 | 30.34083 | -81.38628 | 37142 ft | 411 kts | 347° |
| 2026-05-06 16:42 | 30.39795 | -81.38963 | 37141 ft | 411 kts | 347° |
| 2026-05-06 16:42 | 30.44547 | -81.39251 | 37141 ft | 411 kts | 347° |
| 2026-05-06 16:43 | 30.50276 | -81.39587 | 37139 ft | 411 kts | 348° |
| 2026-05-06 16:43 | 30.55979 | -81.39887 | 37151 ft | 412 kts | 348° |
| 2026-05-06 16:44 | 30.61706 | -81.40178 | 37153 ft | 412 kts | 348° |
| 2026-05-06 16:44 | 30.67406 | -81.40471 | 37171 ft | 412 kts | 348° |
| 2026-05-06 16:45 | 30.74086 | -81.40829 | 37137 ft | 413 kts | 347° |
| 2026-05-06 16:45 | 30.78875 | -81.41086 | 37131 ft | 413 kts | 347° |
| 2026-05-06 16:46 | 30.84647 | -81.41392 | 37124 ft | 414 kts | 347° |
| 2026-05-06 16:46 | 30.90390 | -81.41696 | 37118 ft | 415 kts | 347° |
| 2026-05-06 16:47 | 30.96161 | -81.42003 | 37143 ft | 415 kts | 347° |
| 2026-05-06 16:47 | 31.01939 | -81.42314 | 37138 ft | 415 kts | 347° |
| 2026-05-06 16:48 | 31.07687 | -81.42623 | 37133 ft | 415 kts | 347° |
| 2026-05-06 16:48 | 31.13430 | -81.42924 | 37130 ft | 415 kts | 347° |
| 2026-05-06 16:49 | 31.19196 | -81.43230 | 37129 ft | 414 kts | 347° |
| 2026-05-06 16:49 | 31.25024 | -81.43086 | 37160 ft | 432 kts | 0° |
| 2026-05-06 16:49 | 31.27970 | -81.42092 | 37151 ft | 449 kts | 12° |
| 2026-05-06 16:50 | 31.30801 | -81.40580 | 37148 ft | 453 kts | 14° |
| 2026-05-06 16:50 | 31.36526 | -81.37454 | 37133 ft | 454 kts | 14° |
| 2026-05-06 16:51 | 31.42260 | -81.34331 | 37124 ft | 454 kts | 14° |
| 2026-05-06 16:51 | 31.48015 | -81.31205 | 37119 ft | 454 kts | 13° |
| 2026-05-06 16:52 | 31.53757 | -81.28088 | 37143 ft | 455 kts | 13° |
| 2026-05-06 16:52 | 31.59480 | -81.24971 | 37129 ft | 455 kts | 13° |
| 2026-05-06 16:53 | 31.65233 | -81.21831 | 37126 ft | 456 kts | 13° |
| 2026-05-06 16:53 | 31.70990 | -81.18683 | 37111 ft | 456 kts | 13° |
| 2026-05-06 16:54 | 31.76714 | -81.15547 | 37128 ft | 455 kts | 13° |
| 2026-05-06 16:54 | 31.82466 | -81.12399 | 37120 ft | 455 kts | 13° |
| 2026-05-06 16:55 | 31.88221 | -81.09249 | 37112 ft | 455 kts | 13° |
| 2026-05-06 16:55 | 31.93942 | -81.06115 | 37106 ft | 455 kts | 13° |
| 2026-05-06 16:56 | 31.99698 | -81.02954 | 37108 ft | 456 kts | 13° |
| 2026-05-06 16:56 | 32.05447 | -80.99762 | 37113 ft | 456 kts | 13° |
| 2026-05-06 16:57 | 32.11165 | -80.96551 | 37106 ft | 457 kts | 13° |
| 2026-05-06 16:57 | 32.16906 | -80.93323 | 37131 ft | 457 kts | 13° |
| 2026-05-06 16:58 | 32.22621 | -80.90110 | 37144 ft | 457 kts | 13° |
| 2026-05-06 16:58 | 32.28361 | -80.86886 | 37149 ft | 456 kts | 13° |
| 2026-05-06 16:59 | 32.34111 | -80.83652 | 37163 ft | 456 kts | 13° |
| 2026-05-06 16:59 | 32.39822 | -80.80434 | 37144 ft | 456 kts | 13° |
| 2026-05-06 17:00 | 32.45560 | -80.77195 | 37139 ft | 457 kts | 13° |
| 2026-05-06 17:00 | 32.51297 | -80.73947 | 37139 ft | 457 kts | 13° |
| 2026-05-06 17:01 | 32.57001 | -80.70721 | 37164 ft | 456 kts | 13° |
| 2026-05-06 17:01 | 32.62740 | -80.67477 | 37138 ft | 456 kts | 13° |
| 2026-05-06 17:02 | 32.68473 | -80.64221 | 37129 ft | 458 kts | 14° |
| 2026-05-06 17:02 | 32.71237 | -80.62198 | 37116 ft | 476 kts | 25° |
| 2026-05-06 17:02 | 32.73753 | -80.59538 | 37115 ft | 492 kts | 34° |
| 2026-05-06 17:03 | 32.78487 | -80.53699 | 37112 ft | 493 kts | 34° |
| 2026-05-06 17:03 | 32.83256 | -80.47841 | 37093 ft | 490 kts | 34° |
| 2026-05-06 17:04 | 32.87967 | -80.42069 | 37099 ft | 489 kts | 34° |
| 2026-05-06 17:04 | 32.92713 | -80.36252 | 37103 ft | 490 kts | 34° |
| 2026-05-06 17:05 | 32.97455 | -80.30401 | 37108 ft | 490 kts | 34° |
| 2026-05-06 17:05 | 33.02186 | -80.24545 | 37110 ft | 490 kts | 34° |
| 2026-05-06 17:06 | 33.06890 | -80.18728 | 37104 ft | 489 kts | 34° |
| 2026-05-06 17:06 | 33.11619 | -80.12876 | 37111 ft | 489 kts | 34° |
| 2026-05-06 17:07 | 33.16335 | -80.07023 | 37124 ft | 488 kts | 34° |
| 2026-05-06 17:07 | 33.21051 | -80.01168 | 37122 ft | 488 kts | 34° |
| 2026-05-06 17:08 | 33.25723 | -79.95353 | 37117 ft | 488 kts | 34° |
| 2026-05-06 17:08 | 33.30434 | -79.89484 | 37130 ft | 488 kts | 34° |
| 2026-05-06 17:09 | 33.35138 | -79.83617 | 37116 ft | 488 kts | 34° |
| 2026-05-06 17:09 | 33.39804 | -79.77777 | 37103 ft | 487 kts | 34° |
| 2026-05-06 17:10 | 33.44498 | -79.71891 | 37114 ft | 487 kts | 34° |
| 2026-05-06 17:10 | 33.49176 | -79.66013 | 37106 ft | 486 kts | 34° |
| 2026-05-06 17:11 | 33.53820 | -79.60193 | 37099 ft | 485 kts | 34° |
| 2026-05-06 17:11 | 33.58480 | -79.54327 | 37085 ft | 485 kts | 34° |
| 2026-05-06 17:12 | 33.63111 | -79.48478 | 37085 ft | 485 kts | 34° |
| 2026-05-06 17:12 | 33.67775 | -79.42585 | 37075 ft | 485 kts | 34° |
| 2026-05-06 17:13 | 33.72389 | -79.36746 | 37092 ft | 484 kts | 35° |
| 2026-05-06 17:13 | 33.77034 | -79.30856 | 37100 ft | 483 kts | 34° |
| 2026-05-06 17:14 | 33.81636 | -79.25023 | 37093 ft | 482 kts | 35° |
| 2026-05-06 17:14 | 33.86256 | -79.19155 | 37094 ft | 483 kts | 35° |
| 2026-05-06 17:15 | 33.90861 | -79.13299 | 37093 ft | 483 kts | 35° |
| 2026-05-06 17:15 | 33.95471 | -79.07409 | 37095 ft | 483 kts | 35° |
| 2026-05-06 17:16 | 34.00092 | -79.01495 | 37119 ft | 483 kts | 35° |
| 2026-05-06 17:16 | 34.04702 | -78.95586 | 37104 ft | 483 kts | 35° |
| 2026-05-06 17:17 | 34.09269 | -78.89719 | 37099 ft | 482 kts | 35° |
| 2026-05-06 17:17 | 34.13874 | -78.83805 | 37087 ft | 482 kts | 35° |
| 2026-05-06 17:18 | 34.18476 | -78.77889 | 37091 ft | 483 kts | 35° |
| 2026-05-06 17:18 | 34.23052 | -78.71992 | 37109 ft | 483 kts | 35° |
| 2026-05-06 17:19 | 34.27643 | -78.66069 | 37087 ft | 481 kts | 35° |
| 2026-05-06 17:19 | 34.32194 | -78.60196 | 37098 ft | 477 kts | 32° |
| 2026-05-06 17:19 | 34.34665 | -78.57601 | 37099 ft | 464 kts | 25° |
| 2026-05-06 17:20 | 34.37214 | -78.55198 | 37095 ft | 464 kts | 25° |
| 2026-05-06 17:20 | 34.42322 | -78.50388 | 37086 ft | 464 kts | 25° |
| 2026-05-06 17:21 | 34.47387 | -78.45611 | 37105 ft | 464 kts | 26° |
| 2026-05-06 17:21 | 34.52489 | -78.40772 | 37091 ft | 465 kts | 26° |
| 2026-05-06 17:22 | 34.57596 | -78.35923 | 37083 ft | 465 kts | 26° |
| 2026-05-06 17:22 | 34.62671 | -78.31104 | 37075 ft | 466 kts | 26° |
| 2026-05-06 17:23 | 34.67782 | -78.26239 | 37064 ft | 466 kts | 26° |
| 2026-05-06 17:23 | 34.72893 | -78.21356 | 37082 ft | 468 kts | 26° |
| 2026-05-06 17:24 | 34.78019 | -78.16454 | 37072 ft | 468 kts | 26° |
| 2026-05-06 17:24 | 34.83119 | -78.11583 | 37069 ft | 469 kts | 26° |
| 2026-05-06 17:25 | 34.88256 | -78.06670 | 37072 ft | 469 kts | 26° |
| 2026-05-06 17:25 | 34.93369 | -78.01791 | 37091 ft | 470 kts | 26° |
| 2026-05-06 17:26 | 34.98519 | -77.96871 | 37085 ft | 471 kts | 26° |
| 2026-05-06 17:26 | 35.03678 | -77.91926 | 37077 ft | 471 kts | 26° |
| 2026-05-06 17:27 | 35.08839 | -77.86964 | 37075 ft | 470 kts | 26° |
| 2026-05-06 17:27 | 35.13951 | -77.82050 | 37094 ft | 471 kts | 26° |
| 2026-05-06 17:28 | 35.19109 | -77.77092 | 37089 ft | 471 kts | 26° |
| 2026-05-06 17:28 | 35.24274 | -77.72119 | 37069 ft | 472 kts | 26° |
| 2026-05-06 17:29 | 35.29429 | -77.67139 | 37066 ft | 472 kts | 26° |
| 2026-05-06 17:29 | 35.34549 | -77.62186 | 37064 ft | 472 kts | 26° |
| 2026-05-06 17:30 | 35.39705 | -77.57180 | 37063 ft | 472 kts | 26° |
| 2026-05-06 17:30 | 35.43990 | -77.53020 | 37076 ft | 471 kts | 26° |
| 2026-05-06 17:31 | 35.49971 | -77.47213 | 37054 ft | 471 kts | 26° |
| 2026-05-06 17:31 | 35.54247 | -77.43050 | 37051 ft | 471 kts | 26° |
| 2026-05-06 17:32 | 35.59381 | -77.38043 | 37080 ft | 471 kts | 26° |
| 2026-05-06 17:32 | 35.64521 | -77.33018 | 37057 ft | 472 kts | 26° |
| 2026-05-06 17:33 | 35.69663 | -77.27992 | 37048 ft | 472 kts | 26° |
| 2026-05-06 17:33 | 35.74786 | -77.22977 | 37047 ft | 472 kts | 26° |
| 2026-05-06 17:34 | 35.79905 | -77.17953 | 37054 ft | 471 kts | 27° |
| 2026-05-06 17:34 | 35.85032 | -77.12893 | 37071 ft | 471 kts | 27° |
| 2026-05-06 17:35 | 35.90150 | -77.07845 | 37070 ft | 471 kts | 27° |
| 2026-05-06 17:35 | 35.92764 | -77.05475 | 37064 ft | 460 kts | 19° |
| 2026-05-06 17:35 | 35.95505 | -77.03471 | 37060 ft | 457 kts | 18° |
| 2026-05-06 17:36 | 36.03724 | -76.97503 | 37079 ft | 457 kts | 18° |
| 2026-05-06 17:36 | 36.09214 | -76.93491 | 37044 ft | 459 kts | 18° |
| 2026-05-06 17:37 | 36.14690 | -76.89488 | 37027 ft | 460 kts | 19° |
| 2026-05-06 17:37 | 36.20214 | -76.85440 | 37018 ft | 460 kts | 19° |
| 2026-05-06 17:38 | 36.25686 | -76.81418 | 37039 ft | 459 kts | 19° |
| 2026-05-06 17:38 | 36.31179 | -76.77380 | 37048 ft | 459 kts | 19° |
| 2026-05-06 17:39 | 36.36679 | -76.73328 | 37038 ft | 459 kts | 19° |
| 2026-05-06 17:39 | 36.42184 | -76.69273 | 37028 ft | 459 kts | 19° |
| 2026-05-06 17:40 | 36.47647 | -76.65243 | 37024 ft | 459 kts | 19° |
| 2026-05-06 17:40 | 36.53152 | -76.61172 | 37029 ft | 461 kts | 19° |
| 2026-05-06 17:41 | 36.58671 | -76.57078 | 37035 ft | 462 kts | 19° |
| 2026-05-06 17:41 | 36.64166 | -76.52992 | 37044 ft | 462 kts | 19° |
| 2026-05-06 17:42 | 36.69691 | -76.48884 | 37023 ft | 463 kts | 20° |
| 2026-05-06 17:42 | 36.75233 | -76.44764 | 37041 ft | 463 kts | 20° |
| 2026-05-06 17:43 | 36.80774 | -76.40625 | 37042 ft | 463 kts | 20° |
| 2026-05-06 17:43 | 36.86264 | -76.36518 | 37062 ft | 463 kts | 20° |
| 2026-05-06 17:44 | 36.91802 | -76.32377 | 37071 ft | 463 kts | 20° |
| 2026-05-06 17:44 | 36.97348 | -76.28215 | 37086 ft | 465 kts | 20° |
| 2026-05-06 17:45 | 37.02865 | -76.24074 | 37071 ft | 465 kts | 20° |
| 2026-05-06 17:45 | 37.08424 | -76.19902 | 37009 ft | 465 kts | 20° |
| 2026-05-06 17:46 | 37.13978 | -76.15716 | 37032 ft | 466 kts | 20° |
| 2026-05-06 17:46 | 37.19526 | -76.11526 | 36995 ft | 467 kts | 20° |
| 2026-05-06 17:47 | 37.25099 | -76.07312 | 36989 ft | 468 kts | 20° |
| 2026-05-06 17:47 | 37.30676 | -76.03079 | 36980 ft | 468 kts | 20° |
| 2026-05-06 17:48 | 37.36244 | -75.98842 | 37011 ft | 469 kts | 19° |
| 2026-05-06 17:48 | 37.41841 | -75.94592 | 36982 ft | 470 kts | 20° |
| 2026-05-06 17:49 | 37.47451 | -75.90328 | 36979 ft | 471 kts | 20° |
| 2026-05-06 17:49 | 37.53069 | -75.86043 | 36979 ft | 472 kts | 20° |
| 2026-05-06 17:50 | 37.58701 | -75.81775 | 36983 ft | 471 kts | 19° |
| 2026-05-06 17:50 | 37.64315 | -75.77587 | 36983 ft | 471 kts | 19° |
| 2026-05-06 17:51 | 37.69954 | -75.73379 | 36993 ft | 470 kts | 19° |
| 2026-05-06 17:51 | 37.75600 | -75.69137 | 36993 ft | 470 kts | 19° |
| 2026-05-06 17:52 | 37.81201 | -75.64912 | 36995 ft | 471 kts | 19° |
| 2026-05-06 17:52 | 37.86809 | -75.60570 | 37005 ft | 475 kts | 21° |
| 2026-05-06 17:53 | 37.92294 | -75.55820 | 37006 ft | 480 kts | 24° |
| 2026-05-06 17:53 | 37.97710 | -75.50931 | 36971 ft | 480 kts | 24° |
| 2026-05-06 17:54 | 38.03184 | -75.46069 | 36975 ft | 480 kts | 22° |
| 2026-05-06 17:54 | 38.08711 | -75.41342 | 36970 ft | 478 kts | 20° |
| 2026-05-06 17:55 | 38.14332 | -75.36825 | 36982 ft | 476 kts | 19° |
| 2026-05-06 17:55 | 38.17144 | -75.34590 | 36795 ft | 479 kts | 19° |
| 2026-05-06 17:55 | 38.19958 | -75.32339 | 36666 ft | 473 kts | 19° |
| 2026-05-06 17:56 | 38.25632 | -75.28471 | 36941 ft | 455 kts | 6° |
| 2026-05-06 17:56 | 38.28627 | -75.27380 | 36988 ft | 438 kts | 357° |
| 2026-05-06 17:56 | 38.31616 | -75.26736 | 36987 ft | 434 kts | 355° |
| 2026-05-06 17:57 | 38.37592 | -75.25501 | 36986 ft | 434 kts | 355° |
| 2026-05-06 17:57 | 38.43533 | -75.24261 | 36986 ft | 436 kts | 355° |
| 2026-05-06 17:58 | 38.49545 | -75.23000 | 36973 ft | 438 kts | 355° |
| 2026-05-06 17:58 | 38.55563 | -75.21732 | 36964 ft | 438 kts | 355° |
| 2026-05-06 17:59 | 38.61548 | -75.20470 | 36958 ft | 438 kts | 355° |
| 2026-05-06 17:59 | 38.67583 | -75.19129 | 36949 ft | 448 kts | 1° |
| 2026-05-06 18:00 | 38.70593 | -75.17777 | 36940 ft | 469 kts | 13° |
| 2026-05-06 18:00 | 38.73463 | -75.15603 | 36937 ft | 490 kts | 25° |
| 2026-05-06 18:00 | 38.78881 | -75.10277 | 36933 ft | 494 kts | 25° |
| 2026-05-06 18:01 | 38.84338 | -75.04911 | 36972 ft | 494 kts | 25° |
| 2026-05-06 18:01 | 38.89813 | -74.99523 | 36930 ft | 496 kts | 25° |
| 2026-05-06 18:02 | 38.95271 | -74.94156 | 36916 ft | 497 kts | 25° |
| 2026-05-06 18:02 | 39.00783 | -74.88718 | 36917 ft | 498 kts | 25° |
| 2026-05-06 18:03 | 39.06248 | -74.83305 | 36929 ft | 499 kts | 25° |
| 2026-05-06 18:03 | 39.09009 | -74.80566 | 36712 ft | 501 kts | 25° |
| 2026-05-06 18:03 | 39.11765 | -74.77789 | 35950 ft | 506 kts | 27° |
| 2026-05-06 18:04 | 39.14512 | -74.74905 | 35181 ft | 510 kts | 28° |
| 2026-05-06 18:04 | 39.17239 | -74.71946 | 34386 ft | 514 kts | 29° |
| 2026-05-06 18:04 | 39.19973 | -74.68928 | 33471 ft | 517 kts | 30° |
| 2026-05-06 18:04 | 39.22676 | -74.65932 | 32535 ft | 519 kts | 31° |
| 2026-05-06 18:05 | 39.25433 | -74.62890 | 31580 ft | 521 kts | 31° |
| 2026-05-06 18:05 | 39.28207 | -74.59857 | 30580 ft | 522 kts | 31° |
| 2026-05-06 18:05 | 39.30997 | -74.56827 | 29411 ft | 525 kts | 32° |
| 2026-05-06 18:05 | 39.33801 | -74.53789 | 28247 ft | 525 kts | 32° |
| 2026-05-06 18:06 | 39.36575 | -74.50783 | 27078 ft | 526 kts | 33° |
| 2026-05-06 18:06 | 39.39385 | -74.47732 | 26173 ft | 523 kts | 33° |
| 2026-05-06 18:06 | 39.42141 | -74.44724 | 25473 ft | 516 kts | 34° |
| 2026-05-06 18:06 | 39.44881 | -74.41726 | 24676 ft | 512 kts | 34° |
| 2026-05-06 18:07 | 39.47594 | -74.38755 | 23895 ft | 509 kts | 34° |
| 2026-05-06 18:07 | 39.50286 | -74.35809 | 23058 ft | 506 kts | 35° |
| 2026-05-06 18:07 | 39.52955 | -74.32891 | 22297 ft | 498 kts | 35° |
| 2026-05-06 18:07 | 39.55592 | -74.30001 | 21537 ft | 492 kts | 35° |
| 2026-05-06 18:08 | 39.58163 | -74.27182 | 20802 ft | 486 kts | 35° |
| 2026-05-06 18:08 | 39.60730 | -74.24367 | 20068 ft | 480 kts | 35° |
| 2026-05-06 18:08 | 39.63269 | -74.21575 | 19365 ft | 474 kts | 36° |
| 2026-05-06 18:08 | 39.65766 | -74.18823 | 18686 ft | 469 kts | 36° |
| 2026-05-06 18:09 | 39.68217 | -74.16127 | 18085 ft | 463 kts | 36° |
| 2026-05-06 18:09 | 39.70656 | -74.13442 | 17475 ft | 457 kts | 36° |
| 2026-05-06 18:09 | 39.73072 | -74.10780 | 16854 ft | 453 kts | 36° |
| 2026-05-06 18:09 | 39.75468 | -74.08136 | 16241 ft | 449 kts | 36° |
| 2026-05-06 18:10 | 39.77840 | -74.05511 | 15623 ft | 446 kts | 36° |
| 2026-05-06 18:10 | 39.80196 | -74.02902 | 15008 ft | 443 kts | 37° |
| 2026-05-06 18:10 | 39.82510 | -74.00340 | 14342 ft | 441 kts | 37° |
| 2026-05-06 18:10 | 39.84142 | -73.98702 | 13914 ft | 436 kts | 31° |
| 2026-05-06 18:11 | 39.87602 | -73.96077 | 12605 ft | 428 kts | 24° |
| 2026-05-06 18:11 | 39.89301 | -73.94874 | 12330 ft | 409 kts | 24° |
| 2026-05-06 18:11 | 39.92492 | -73.92609 | 12095 ft | 370 kts | 24° |
| 2026-05-06 18:11 | 39.94692 | -73.91047 | 11802 ft | 352 kts | 24° |
| 2026-05-06 18:12 | 39.96796 | -73.89562 | 11256 ft | 345 kts | 24° |
| 2026-05-06 18:12 | 39.98885 | -73.88092 | 11026 ft | 340 kts | 24° |
| 2026-05-06 18:12 | 40.01015 | -73.86501 | 10901 ft | 367 kts | 27° |
| 2026-05-06 18:12 | 40.03256 | -73.84737 | 10525 ft | 377 kts | 27° |
| 2026-05-06 18:13 | 40.05433 | -73.83015 | 10189 ft | 358 kts | 27° |
| 2026-05-06 18:13 | 40.07511 | -73.81360 | 9855 ft | 342 kts | 27° |
| 2026-05-06 18:13 | 40.09532 | -73.79749 | 9253 ft | 337 kts | 27° |
| 2026-05-06 18:13 | 40.11530 | -73.78174 | 8627 ft | 334 kts | 27° |
| 2026-05-06 18:14 | 40.13520 | -73.76632 | 7993 ft | 331 kts | 27° |
| 2026-05-06 18:14 | 40.15501 | -73.75123 | 7388 ft | 328 kts | 27° |
| 2026-05-06 18:14 | 40.17478 | -73.73642 | 6785 ft | 326 kts | 27° |
| 2026-05-06 18:14 | 40.19425 | -73.72212 | 6200 ft | 324 kts | 27° |
| 2026-05-06 18:15 | 40.21389 | -73.70767 | 5578 ft | 322 kts | 27° |
| 2026-05-06 18:15 | 40.23334 | -73.69316 | 5108 ft | 320 kts | 27° |
| 2026-05-06 18:15 | 40.25257 | -73.67865 | 4828 ft | 318 kts | 27° |
| 2026-05-06 18:15 | 40.27174 | -73.66413 | 4484 ft | 317 kts | 27° |
| 2026-05-06 18:16 | 40.29072 | -73.64969 | 4183 ft | 313 kts | 28° |
| 2026-05-06 18:16 | 40.30959 | -73.63547 | 4011 ft | 313 kts | 27° |
| 2026-05-06 18:16 | 40.32831 | -73.62141 | 4021 ft | 315 kts | 27° |
| 2026-05-06 18:16 | 40.34741 | -73.60711 | 4020 ft | 315 kts | 27° |
| 2026-05-06 18:17 | 40.36654 | -73.59284 | 4018 ft | 315 kts | 27° |
| 2026-05-06 18:17 | 40.38561 | -73.57865 | 4033 ft | 315 kts | 27° |
| 2026-05-06 18:17 | 40.40463 | -73.56444 | 4019 ft | 313 kts | 27° |
| 2026-05-06 18:17 | 40.42330 | -73.55054 | 4019 ft | 312 kts | 27° |
| 2026-05-06 18:18 | 40.44220 | -73.53642 | 4012 ft | 311 kts | 27° |
| 2026-05-06 18:18 | 40.46102 | -73.52233 | 3727 ft | 310 kts | 27° |
| 2026-05-06 18:18 | 40.47969 | -73.50822 | 3441 ft | 308 kts | 27° |
| 2026-05-06 18:18 | 40.49825 | -73.49421 | 3161 ft | 307 kts | 27° |
| 2026-05-06 18:19 | 40.51666 | -73.48021 | 3011 ft | 304 kts | 27° |
| 2026-05-06 18:19 | 40.53476 | -73.46645 | 3022 ft | 304 kts | 27° |
| 2026-05-06 18:19 | 40.55318 | -73.45247 | 3026 ft | 306 kts | 27° |
| 2026-05-06 18:19 | 40.57237 | -73.44108 | 3024 ft | 299 kts | 7° |
| 2026-05-06 18:20 | 40.59276 | -73.43771 | 3026 ft | 292 kts | 358° |
| 2026-05-06 18:20 | 40.60613 | -73.43654 | 3023 ft | 287 kts | 357° |
| 2026-05-06 18:20 | 40.62557 | -73.43491 | 3020 ft | 272 kts | 357° |
| 2026-05-06 18:20 | 40.64385 | -73.43336 | 3026 ft | 257 kts | 357° |
| 2026-05-06 18:21 | 40.66716 | -73.43120 | 3024 ft | 251 kts | 357° |
| 2026-05-06 18:21 | 40.67875 | -73.43007 | 3025 ft | 250 kts | 357° |
| 2026-05-06 18:21 | 40.69615 | -73.42840 | 3026 ft | 250 kts | 357° |
| 2026-05-06 18:21 | 40.71353 | -73.42679 | 3026 ft | 251 kts | 357° |
| 2026-05-06 18:22 | 40.73101 | -73.42517 | 3023 ft | 250 kts | 357° |
| 2026-05-06 18:22 | 40.74815 | -73.42355 | 3027 ft | 249 kts | 357° |
| 2026-05-06 18:22 | 40.76548 | -73.42198 | 3026 ft | 249 kts | 355° |
| 2026-05-06 18:22 | 40.78190 | -73.42572 | 3041 ft | 231 kts | 323° |
| 2026-05-06 18:23 | 40.79362 | -73.43861 | 3028 ft | 215 kts | 301° |
| 2026-05-06 18:23 | 40.80268 | -73.45406 | 2871 ft | 211 kts | 298° |
| 2026-05-06 18:23 | 40.81132 | -73.46978 | 2535 ft | 212 kts | 297° |
| 2026-05-06 18:23 | 40.81982 | -73.48544 | 2239 ft | 212 kts | 297° |
| 2026-05-06 18:24 | 40.82842 | -73.50141 | 2033 ft | 214 kts | 297° |
| 2026-05-06 18:24 | 40.83439 | -73.51873 | 2000 ft | 202 kts | 269° |
| 2026-05-06 18:24 | 40.83202 | -73.53619 | 2007 ft | 191 kts | 242° |
| 2026-05-06 18:24 | 40.82598 | -73.55180 | 2007 ft | 190 kts | 238° |
| 2026-05-06 18:25 | 40.81944 | -73.56702 | 2005 ft | 191 kts | 237° |
| 2026-05-06 18:25 | 40.81297 | -73.58174 | 2001 ft | 182 kts | 237° |
| 2026-05-06 18:25 | 40.80668 | -73.59593 | 2012 ft | 179 kts | 237° |
| 2026-05-06 18:25 | 40.80062 | -73.60987 | 2008 ft | 173 kts | 237° |
| 2026-05-06 18:26 | 40.79484 | -73.62367 | 2003 ft | 168 kts | 237° |
| 2026-05-06 18:26 | 40.78929 | -73.63724 | 2003 ft | 166 kts | 236° |
| 2026-05-06 18:26 | 40.78164 | -73.64791 | 2004 ft | 159 kts | 213° |
| 2026-05-06 18:26 | 40.77231 | -73.65522 | 2015 ft | 157 kts | 212° |
| 2026-05-06 18:27 | 40.76282 | -73.66268 | 2009 ft | 160 kts | 212° |
| 2026-05-06 18:27 | 40.75310 | -73.67031 | 2011 ft | 161 kts | 212° |
| 2026-05-06 18:27 | 40.74356 | -73.67780 | 2008 ft | 159 kts | 212° |
| 2026-05-06 18:27 | 40.73451 | -73.68489 | 1991 ft | 144 kts | 212° |
| 2026-05-06 18:28 | 40.72653 | -73.69114 | 1861 ft | 127 kts | 212° |
| 2026-05-06 18:28 | 40.71915 | -73.69694 | 1724 ft | 122 kts | 212° |
| 2026-05-06 18:28 | 40.71193 | -73.70260 | 1578 ft | 120 kts | 212° |
| 2026-05-06 18:28 | 40.70490 | -73.70812 | 1427 ft | 118 kts | 211° |
| 2026-05-06 18:29 | 40.69773 | -73.71374 | 1270 ft | 122 kts | 211° |
| 2026-05-06 18:29 | 40.69047 | -73.71942 | 1104 ft | 121 kts | 210° |
| 2026-05-06 18:29 | 40.68316 | -73.72515 | 932 ft | 123 kts | 208° |
| 2026-05-06 18:29 | 40.67573 | -73.73097 | 760 ft | 125 kts | 211° |
| 2026-05-06 18:30 | 40.66828 | -73.73680 | 588 ft | 125 kts | 207° |
| 2026-05-06 18:30 | 40.66334 | -73.74067 | 484 ft | 122 kts | 206° |
| 2026-05-06 18:30 | 40.65374 | -73.74820 | 263 ft | 120 kts | 206° |
| 2026-05-06 18:30 | 40.64647 | -73.75399 | 104 ft | 124 kts | 206° |
| 2026-05-06 18:31 | 40.63935 | -73.75955 | 23 ft | 108 kts | 206° |
| 2026-05-06 18:31 | 40.63409 | -73.76358 | 27 ft | 67 kts | 210° |
| 2026-05-06 18:31 | 40.63121 | -73.76583 | 20 ft | 27 kts | 213° |
| 2026-05-06 18:31 | 40.63003 | -73.76730 | 21 ft | 21 kts | 233° |
| 2026-05-06 18:32 | 40.62937 | -73.76879 | 20 ft | 15 kts | 243° |
| 2026-05-06 18:32 | 40.62936 | -73.76984 | 23 ft | 7 kts | 296° |
| 2026-05-06 18:32 | 40.62939 | -73.76990 | 22 ft | 0 kts | 300° |
| 2026-05-06 18:34 | 40.62947 | -73.77004 | 21 ft | 4 kts | 306° |
| 2026-05-06 18:34 | 40.62987 | -73.77034 | 22 ft | 9 kts | 348° |
| 2026-05-06 18:34 | 40.63045 | -73.77010 | 20 ft | 9 kts | 30° |
| 2026-05-06 18:34 | 40.63105 | -73.76971 | 21 ft | 10 kts | 20° |
| 2026-05-06 18:35 | 40.63175 | -73.76950 | 20 ft | 11 kts | 7° |
| 2026-05-06 18:35 | 40.63253 | -73.76947 | 20 ft | 12 kts | 0° |
| 2026-05-06 18:35 | 40.63340 | -73.76945 | 20 ft | 13 kts | 1° |
| 2026-05-06 18:35 | 40.63435 | -73.76932 | 20 ft | 14 kts | 6° |
| 2026-05-06 18:36 | 40.63521 | -73.76920 | 20 ft | 12 kts | 4° |
| 2026-05-06 18:36 | 40.63614 | -73.76918 | 21 ft | 14 kts | 0° |
| 2026-05-06 18:36 | 40.63718 | -73.76916 | 21 ft | 16 kts | 0° |
| 2026-05-06 18:36 | 40.63826 | -73.76915 | 21 ft | 12 kts | 0° |
| 2026-05-06 18:37 | 40.63907 | -73.76913 | 21 ft | 13 kts | 1° |
| 2026-05-06 18:37 | 40.63997 | -73.76911 | 21 ft | 14 kts | 1° |
| 2026-05-06 18:37 | 40.64097 | -73.76901 | 21 ft | 12 kts | 7° |
| 2026-05-06 18:37 | 40.64151 | -73.76892 | 21 ft | 1 kts | 6° |
| 2026-05-06 18:38 | 40.64152 | -73.76892 | 21 ft | 1 kts | 6° |
| 2026-05-06 18:38 | 40.64178 | -73.76888 | 21 ft | 7 kts | 5° |
| 2026-05-06 18:38 | 40.64259 | -73.76885 | 21 ft | 14 kts | 0° |
| 2026-05-06 18:38 | 40.64358 | -73.76902 | 20 ft | 14 kts | 339° |
| 2026-05-06 18:39 | 40.64414 | -73.76990 | 20 ft | 13 kts | 292° |
| 2026-05-06 18:39 | 40.64433 | -73.77095 | 22 ft | 11 kts | 284° |
| 2026-05-06 18:39 | 40.64452 | -73.77190 | 22 ft | 6 kts | 295° |
| 2026-05-06 18:40 | 40.64473 | -73.77268 | 21 ft | 2 kts | 269° |
| 2026-05-06 18:40 | 40.64476 | -73.77281 | 22 ft | 2 kts | 299° |
| 2026-05-06 18:40 | 40.64486 | -73.77287 | 21 ft | 1 kts | 341° |
| 2026-05-06 18:40 | 40.64500 | -73.77291 | 21 ft | 3 kts | 351° |
| 2026-05-06 18:41 | 40.64512 | -73.77290 | 21 ft | 2 kts | 1° |
| 2026-05-06 18:41 | 40.64528 | -73.77290 | 21 ft | 2 kts | 0° |
| 2026-05-06 18:41 | 40.64529 | -73.77290 | 21 ft | 0 kts | 0° |